sensor_id;sensor_type;location;lat;lon;timestamp;P1;durP1;ratioP1;P2;durP2;ratioP2
15869;SDS011;63464;51.344;-1.634;2022-11-13T00:00:29;35.80;;;29.27;;
15869;SDS011;63464;51.344;-1.634;2022-11-13T00:02:57;38.17;;;30.00;;
15869;SDS011;63464;51.344;-1.634;2022-11-13T00:05:26;39.93;;;31.17;;
15869;SDS011;63464;51.344;-1.634;2022-11-13T00:07:54;38.67;;;31.13;;
15869;SDS011;63464;51.344;-1.634;2022-11-13T00:10:22;39.73;;;30.73;;
15869;SDS011;63464;51.344;-1.634;2022-11-13T00:12:51;37.80;;;32.03;;
15869;SDS011;63464;51.344;-1.634;2022-11-13T00:15:20;42.40;;;33.70;;
15869;SDS011;63464;51.344;-1.634;2022-11-13T00:17:48;44.33;;;34.83;;
15869;SDS011;63464;51.344;-1.634;2022-11-13T00:20:17;41.57;;;32.23;;
15869;SDS011;63464;51.344;-1.634;2022-11-13T00:22:45;43.93;;;34.17;;
15869;SDS011;63464;51.344;-1.634;2022-11-13T00:25:14;47.37;;;35.10;;
15869;SDS011;63464;51.344;-1.634;2022-11-13T00:27:42;41.37;;;33.00;;
15869;SDS011;63464;51.344;-1.634;2022-11-13T00:30:11;45.80;;;34.80;;
15869;SDS011;63464;51.344;-1.634;2022-11-13T00:32:40;45.40;;;35.13;;
15869;SDS011;63464;51.344;-1.634;2022-11-13T00:35:08;47.33;;;35.73;;
15869;SDS011;63464;51.344;-1.634;2022-11-13T00:37:36;46.77;;;36.10;;
15869;SDS011;63464;51.344;-1.634;2022-11-13T00:40:06;46.97;;;37.03;;
15869;SDS011;63464;51.344;-1.634;2022-11-13T00:42:34;49.87;;;36.43;;
15869;SDS011;63464;51.344;-1.634;2022-11-13T00:45:05;51.13;;;37.77;;
15869;SDS011;63464;51.344;-1.634;2022-11-13T00:47:35;49.27;;;35.90;;
15869;SDS011;63464;51.344;-1.634;2022-11-13T00:50:04;51.43;;;38.03;;
15869;SDS011;63464;51.344;-1.634;2022-11-13T00:52:32;52.37;;;37.97;;
15869;SDS011;63464;51.344;-1.634;2022-11-13T00:55:01;52.47;;;37.07;;
15869;SDS011;63464;51.344;-1.634;2022-11-13T00:57:29;50.60;;;37.83;;
15869;SDS011;63464;51.344;-1.634;2022-11-13T00:59:57;50.77;;;37.93;;
15869;SDS011;63464;51.344;-1.634;2022-11-13T01:02:26;52.67;;;38.77;;
15869;SDS011;63464;51.344;-1.634;2022-11-13T01:04:54;56.33;;;38.37;;
15869;SDS011;63464;51.344;-1.634;2022-11-13T01:07:22;54.37;;;39.47;;
15869;SDS011;63464;51.344;-1.634;2022-11-13T01:09:51;47.40;;;37.03;;
15869;SDS011;63464;51.344;-1.634;2022-11-13T01:12:19;50.63;;;37.63;;
15869;SDS011;63464;51.344;-1.634;2022-11-13T01:14:48;51.80;;;38.57;;
15869;SDS011;63464;51.344;-1.634;2022-11-13T01:17:16;57.13;;;39.07;;
15869;SDS011;63464;51.344;-1.634;2022-11-13T01:19:44;53.03;;;37.43;;
15869;SDS011;63464;51.344;-1.634;2022-11-13T01:22:13;53.63;;;37.97;;
15869;SDS011;63464;51.344;-1.634;2022-11-13T01:24:42;53.07;;;37.70;;
15869;SDS011;63464;51.344;-1.634;2022-11-13T01:27:11;50.80;;;37.83;;
15869;SDS011;63464;51.344;-1.634;2022-11-13T01:29:41;55.27;;;38.57;;
15869;SDS011;63464;51.344;-1.634;2022-11-13T01:32:10;54.50;;;37.97;;
15869;SDS011;63464;51.344;-1.634;2022-11-13T01:34:38;53.03;;;37.10;;
15869;SDS011;63464;51.344;-1.634;2022-11-13T01:37:06;55.30;;;38.03;;
15869;SDS011;63464;51.344;-1.634;2022-11-13T01:39:35;49.27;;;36.80;;
15869;SDS011;63464;51.344;-1.634;2022-11-13T01:42:03;51.50;;;37.03;;
15869;SDS011;63464;51.344;-1.634;2022-11-13T01:44:44;55.10;;;38.27;;
15869;SDS011;63464;51.344;-1.634;2022-11-13T01:47:14;52.53;;;37.77;;
15869;SDS011;63464;51.344;-1.634;2022-11-13T01:49:42;54.63;;;38.60;;
15869;SDS011;63464;51.344;-1.634;2022-11-13T01:52:12;52.20;;;37.70;;
15869;SDS011;63464;51.344;-1.634;2022-11-13T01:54:42;50.93;;;37.77;;
15869;SDS011;63464;51.344;-1.634;2022-11-13T01:57:11;54.60;;;38.40;;
15869;SDS011;63464;51.344;-1.634;2022-11-13T01:59:43;56.57;;;38.50;;
15869;SDS011;63464;51.344;-1.634;2022-11-13T02:02:10;52.37;;;37.77;;
15869;SDS011;63464;51.344;-1.634;2022-11-13T02:04:39;50.67;;;37.73;;
15869;SDS011;63464;51.344;-1.634;2022-11-13T02:07:08;55.40;;;38.73;;
15869;SDS011;63464;51.344;-1.634;2022-11-13T02:09:37;54.50;;;37.70;;
15869;SDS011;63464;51.344;-1.634;2022-11-13T02:12:07;61.47;;;40.03;;
15869;SDS011;63464;51.344;-1.634;2022-11-13T02:14:37;57.77;;;40.57;;
15869;SDS011;63464;51.344;-1.634;2022-11-13T02:17:07;55.03;;;38.37;;
15869;SDS011;63464;51.344;-1.634;2022-11-13T02:19:37;59.97;;;38.93;;
15869;SDS011;63464;51.344;-1.634;2022-11-13T02:22:07;57.53;;;38.53;;
15869;SDS011;63464;51.344;-1.634;2022-11-13T02:24:36;55.57;;;38.13;;
15869;SDS011;63464;51.344;-1.634;2022-11-13T02:27:06;56.90;;;39.07;;
15869;SDS011;63464;51.344;-1.634;2022-11-13T02:29:35;59.05;;;39.40;;
15869;SDS011;63464;51.344;-1.634;2022-11-13T02:32:03;57.83;;;38.43;;
15869;SDS011;63464;51.344;-1.634;2022-11-13T02:34:32;58.67;;;37.63;;
15869;SDS011;63464;51.344;-1.634;2022-11-13T02:37:00;58.37;;;38.97;;
15869;SDS011;63464;51.344;-1.634;2022-11-13T02:39:29;59.90;;;38.53;;
15869;SDS011;63464;51.344;-1.634;2022-11-13T02:41:57;53.87;;;37.83;;
15869;SDS011;63464;51.344;-1.634;2022-11-13T02:44:26;55.40;;;37.83;;
15869;SDS011;63464;51.344;-1.634;2022-11-13T02:46:54;60.57;;;38.63;;
15869;SDS011;63464;51.344;-1.634;2022-11-13T02:49:23;57.63;;;38.37;;
15869;SDS011;63464;51.344;-1.634;2022-11-13T02:51:52;57.00;;;37.73;;
15869;SDS011;63464;51.344;-1.634;2022-11-13T02:54:20;55.30;;;37.63;;
15869;SDS011;63464;51.344;-1.634;2022-11-13T02:56:49;56.33;;;38.10;;
15869;SDS011;63464;51.344;-1.634;2022-11-13T02:59:17;56.23;;;38.20;;
15869;SDS011;63464;51.344;-1.634;2022-11-13T03:01:45;57.67;;;38.13;;
15869;SDS011;63464;51.344;-1.634;2022-11-13T03:04:14;58.90;;;38.87;;
15869;SDS011;63464;51.344;-1.634;2022-11-13T03:06:42;57.57;;;37.57;;
15869;SDS011;63464;51.344;-1.634;2022-11-13T03:09:10;60.67;;;38.80;;
15869;SDS011;63464;51.344;-1.634;2022-11-13T03:11:39;59.17;;;38.70;;
15869;SDS011;63464;51.344;-1.634;2022-11-13T03:14:07;55.07;;;38.27;;
15869;SDS011;63464;51.344;-1.634;2022-11-13T03:16:36;52.90;;;37.17;;
15869;SDS011;63464;51.344;-1.634;2022-11-13T03:19:04;58.33;;;38.73;;
15869;SDS011;63464;51.344;-1.634;2022-11-13T03:21:33;58.73;;;38.03;;
15869;SDS011;63464;51.344;-1.634;2022-11-13T03:24:01;58.20;;;38.40;;
15869;SDS011;63464;51.344;-1.634;2022-11-13T03:26:29;63.43;;;39.90;;
15869;SDS011;63464;51.344;-1.634;2022-11-13T03:28:58;54.17;;;38.47;;
15869;SDS011;63464;51.344;-1.634;2022-11-13T03:31:26;53.10;;;36.97;;
15869;SDS011;63464;51.344;-1.634;2022-11-13T03:33:55;55.25;;;37.25;;
15869;SDS011;63464;51.344;-1.634;2022-11-13T03:36:23;54.23;;;36.53;;
15869;SDS011;63464;51.344;-1.634;2022-11-13T03:38:52;53.37;;;37.17;;
15869;SDS011;63464;51.344;-1.634;2022-11-13T03:41:20;49.17;;;36.30;;
15869;SDS011;63464;51.344;-1.634;2022-11-13T03:43:49;50.63;;;36.40;;
15869;SDS011;63464;51.344;-1.634;2022-11-13T03:46:17;55.90;;;38.33;;
15869;SDS011;63464;51.344;-1.634;2022-11-13T03:48:46;55.57;;;36.07;;
15869;SDS011;63464;51.344;-1.634;2022-11-13T03:51:15;56.63;;;37.13;;
15869;SDS011;63464;51.344;-1.634;2022-11-13T03:53:43;55.53;;;37.33;;
15869;SDS011;63464;51.344;-1.634;2022-11-13T03:56:12;53.73;;;36.87;;
15869;SDS011;63464;51.344;-1.634;2022-11-13T03:58:40;52.37;;;35.93;;
15869;SDS011;63464;51.344;-1.634;2022-11-13T04:01:09;53.93;;;36.77;;
15869;SDS011;63464;51.344;-1.634;2022-11-13T04:03:37;51.97;;;37.83;;
15869;SDS011;63464;51.344;-1.634;2022-11-13T04:06:06;53.70;;;37.13;;
15869;SDS011;63464;51.344;-1.634;2022-11-13T04:08:35;55.80;;;36.77;;
15869;SDS011;63464;51.344;-1.634;2022-11-13T04:11:07;55.77;;;36.33;;
15869;SDS011;63464;51.344;-1.634;2022-11-13T04:13:35;55.87;;;36.23;;
15869;SDS011;63464;51.344;-1.634;2022-11-13T04:16:04;57.50;;;36.47;;
15869;SDS011;63464;51.344;-1.634;2022-11-13T04:18:32;57.57;;;36.40;;
15869;SDS011;63464;51.344;-1.634;2022-11-13T04:21:02;58.23;;;35.43;;
15869;SDS011;63464;51.344;-1.634;2022-11-13T04:23:31;52.43;;;35.07;;
15869;SDS011;63464;51.344;-1.634;2022-11-13T04:26:00;51.73;;;33.97;;
15869;SDS011;63464;51.344;-1.634;2022-11-13T04:28:28;47.30;;;33.07;;
15869;SDS011;63464;51.344;-1.634;2022-11-13T04:30:56;54.77;;;34.10;;
15869;SDS011;63464;51.344;-1.634;2022-11-13T04:33:25;52.67;;;33.63;;
15869;SDS011;63464;51.344;-1.634;2022-11-13T04:35:53;48.83;;;33.20;;
15869;SDS011;63464;51.344;-1.634;2022-11-13T04:38:21;51.60;;;34.23;;
15869;SDS011;63464;51.344;-1.634;2022-11-13T04:40:50;54.37;;;35.13;;
15869;SDS011;63464;51.344;-1.634;2022-11-13T04:43:20;55.03;;;35.20;;
15869;SDS011;63464;51.344;-1.634;2022-11-13T04:45:51;51.57;;;33.87;;
15869;SDS011;63464;51.344;-1.634;2022-11-13T04:48:20;52.03;;;33.73;;
15869;SDS011;63464;51.344;-1.634;2022-11-13T04:50:49;49.57;;;33.27;;
15869;SDS011;63464;51.344;-1.634;2022-11-13T04:53:19;55.50;;;34.30;;
15869;SDS011;63464;51.344;-1.634;2022-11-13T04:55:47;48.50;;;33.63;;
15869;SDS011;63464;51.344;-1.634;2022-11-13T04:58:15;51.40;;;33.80;;
15869;SDS011;63464;51.344;-1.634;2022-11-13T05:00:44;49.53;;;33.03;;
15869;SDS011;63464;51.344;-1.634;2022-11-13T05:03:12;54.53;;;34.10;;
15869;SDS011;63464;51.344;-1.634;2022-11-13T05:05:41;53.43;;;33.57;;
15869;SDS011;63464;51.344;-1.634;2022-11-13T05:08:10;53.00;;;32.57;;
15869;SDS011;63464;51.344;-1.634;2022-11-13T05:10:38;47.93;;;31.77;;
15869;SDS011;63464;51.344;-1.634;2022-11-13T05:13:07;50.10;;;33.23;;
15869;SDS011;63464;51.344;-1.634;2022-11-13T05:15:35;44.07;;;31.53;;
15869;SDS011;63464;51.344;-1.634;2022-11-13T05:18:03;44.33;;;30.23;;
15869;SDS011;63464;51.344;-1.634;2022-11-13T05:20:32;46.93;;;31.57;;
15869;SDS011;63464;51.344;-1.634;2022-11-13T05:23:00;45.73;;;30.13;;
15869;SDS011;63464;51.344;-1.634;2022-11-13T05:25:29;45.13;;;31.20;;
15869;SDS011;63464;51.344;-1.634;2022-11-13T05:27:57;44.07;;;30.37;;
15869;SDS011;63464;51.344;-1.634;2022-11-13T05:30:26;44.93;;;30.27;;
15869;SDS011;63464;51.344;-1.634;2022-11-13T05:32:54;41.80;;;30.20;;
15869;SDS011;63464;51.344;-1.634;2022-11-13T05:35:22;42.93;;;29.87;;
15869;SDS011;63464;51.344;-1.634;2022-11-13T05:37:51;44.53;;;30.53;;
15869;SDS011;63464;51.344;-1.634;2022-11-13T05:40:19;46.90;;;30.40;;
15869;SDS011;63464;51.344;-1.634;2022-11-13T05:42:47;44.10;;;29.67;;
15869;SDS011;63464;51.344;-1.634;2022-11-13T05:45:16;45.43;;;29.70;;
15869;SDS011;63464;51.344;-1.634;2022-11-13T05:47:44;38.63;;;28.50;;
15869;SDS011;63464;51.344;-1.634;2022-11-13T05:50:13;41.40;;;28.83;;
15869;SDS011;63464;51.344;-1.634;2022-11-13T05:52:41;43.63;;;29.47;;
15869;SDS011;63464;51.344;-1.634;2022-11-13T05:55:10;42.03;;;29.63;;
15869;SDS011;63464;51.344;-1.634;2022-11-13T05:57:39;45.53;;;29.87;;
15869;SDS011;63464;51.344;-1.634;2022-11-13T06:00:08;39.37;;;28.10;;
15869;SDS011;63464;51.344;-1.634;2022-11-13T06:02:37;40.73;;;29.20;;
15869;SDS011;63464;51.344;-1.634;2022-11-13T06:05:06;39.40;;;28.83;;
15869;SDS011;63464;51.344;-1.634;2022-11-13T06:07:35;42.53;;;28.83;;
15869;SDS011;63464;51.344;-1.634;2022-11-13T06:10:04;43.40;;;29.57;;
15869;SDS011;63464;51.344;-1.634;2022-11-13T06:12:33;47.03;;;29.47;;
15869;SDS011;63464;51.344;-1.634;2022-11-13T06:15:01;41.50;;;28.60;;
15869;SDS011;63464;51.344;-1.634;2022-11-13T06:17:30;42.60;;;29.77;;
15869;SDS011;63464;51.344;-1.634;2022-11-13T06:19:58;44.57;;;28.27;;
15869;SDS011;63464;51.344;-1.634;2022-11-13T06:22:27;42.83;;;29.10;;
15869;SDS011;63464;51.344;-1.634;2022-11-13T06:24:55;41.03;;;28.33;;
15869;SDS011;63464;51.344;-1.634;2022-11-13T06:27:24;38.73;;;27.37;;
15869;SDS011;63464;51.344;-1.634;2022-11-13T06:29:52;44.00;;;29.20;;
15869;SDS011;63464;51.344;-1.634;2022-11-13T06:32:21;42.67;;;27.83;;
15869;SDS011;63464;51.344;-1.634;2022-11-13T06:34:49;39.10;;;26.97;;
15869;SDS011;63464;51.344;-1.634;2022-11-13T06:37:17;40.70;;;26.30;;
15869;SDS011;63464;51.344;-1.634;2022-11-13T06:39:46;40.87;;;26.90;;
15869;SDS011;63464;51.344;-1.634;2022-11-13T06:42:14;39.77;;;26.37;;
15869;SDS011;63464;51.344;-1.634;2022-11-13T06:44:43;40.00;;;27.00;;
15869;SDS011;63464;51.344;-1.634;2022-11-13T06:47:11;41.57;;;26.83;;
15869;SDS011;63464;51.344;-1.634;2022-11-13T06:49:39;39.23;;;26.47;;
15869;SDS011;63464;51.344;-1.634;2022-11-13T06:52:08;38.73;;;26.23;;
15869;SDS011;63464;51.344;-1.634;2022-11-13T06:54:37;39.83;;;26.63;;
15869;SDS011;63464;51.344;-1.634;2022-11-13T06:57:06;33.90;;;25.10;;
15869;SDS011;63464;51.344;-1.634;2022-11-13T06:59:34;37.77;;;25.37;;
15869;SDS011;63464;51.344;-1.634;2022-11-13T07:02:03;33.30;;;24.87;;
15869;SDS011;63464;51.344;-1.634;2022-11-13T07:04:33;35.13;;;24.33;;
15869;SDS011;63464;51.344;-1.634;2022-11-13T07:07:01;35.67;;;23.50;;
15869;SDS011;63464;51.344;-1.634;2022-11-13T07:09:30;34.40;;;22.97;;
15869;SDS011;63464;51.344;-1.634;2022-11-13T07:11:58;38.00;;;24.63;;
15869;SDS011;63464;51.344;-1.634;2022-11-13T07:14:27;32.87;;;22.47;;
15869;SDS011;63464;51.344;-1.634;2022-11-13T07:16:55;35.57;;;23.87;;
15869;SDS011;63464;51.344;-1.634;2022-11-13T07:19:24;33.93;;;23.90;;
15869;SDS011;63464;51.344;-1.634;2022-11-13T07:21:52;30.57;;;22.10;;
15869;SDS011;63464;51.344;-1.634;2022-11-13T07:24:21;35.30;;;24.07;;
15869;SDS011;63464;51.344;-1.634;2022-11-13T07:26:50;36.57;;;23.80;;
15869;SDS011;63464;51.344;-1.634;2022-11-13T07:29:18;34.40;;;21.67;;
15869;SDS011;63464;51.344;-1.634;2022-11-13T07:31:46;34.37;;;22.07;;
15869;SDS011;63464;51.344;-1.634;2022-11-13T07:34:15;31.97;;;22.53;;
15869;SDS011;63464;51.344;-1.634;2022-11-13T07:36:43;30.37;;;22.10;;
15869;SDS011;63464;51.344;-1.634;2022-11-13T07:39:11;36.87;;;22.37;;
15869;SDS011;63464;51.344;-1.634;2022-11-13T07:41:40;37.27;;;22.83;;
15869;SDS011;63464;51.344;-1.634;2022-11-13T07:44:08;35.87;;;22.83;;
15869;SDS011;63464;51.344;-1.634;2022-11-13T07:46:36;36.03;;;22.00;;
15869;SDS011;63464;51.344;-1.634;2022-11-13T07:49:05;39.93;;;24.13;;
15869;SDS011;63464;51.344;-1.634;2022-11-13T07:51:33;34.57;;;21.83;;
15869;SDS011;63464;51.344;-1.634;2022-11-13T07:54:02;36.93;;;22.20;;
15869;SDS011;63464;51.344;-1.634;2022-11-13T07:56:30;39.23;;;21.87;;
15869;SDS011;63464;51.344;-1.634;2022-11-13T07:58:59;34.30;;;20.77;;
15869;SDS011;63464;51.344;-1.634;2022-11-13T08:01:27;36.73;;;21.47;;
15869;SDS011;63464;51.344;-1.634;2022-11-13T08:03:55;39.37;;;22.03;;
15869;SDS011;63464;51.344;-1.634;2022-11-13T08:06:24;33.07;;;21.30;;
15869;SDS011;63464;51.344;-1.634;2022-11-13T08:08:54;33.90;;;20.90;;
15869;SDS011;63464;51.344;-1.634;2022-11-13T08:11:22;34.40;;;20.60;;
15869;SDS011;63464;51.344;-1.634;2022-11-13T08:13:51;32.37;;;21.70;;
15869;SDS011;63464;51.344;-1.634;2022-11-13T08:16:20;33.47;;;20.07;;
15869;SDS011;63464;51.344;-1.634;2022-11-13T08:18:49;38.00;;;22.13;;
15869;SDS011;63464;51.344;-1.634;2022-11-13T08:21:18;36.93;;;21.70;;
15869;SDS011;63464;51.344;-1.634;2022-11-13T08:23:47;35.67;;;21.87;;
15869;SDS011;63464;51.344;-1.634;2022-11-13T08:26:16;33.30;;;21.53;;
15869;SDS011;63464;51.344;-1.634;2022-11-13T08:28:45;36.57;;;20.87;;
15869;SDS011;63464;51.344;-1.634;2022-11-13T08:31:14;34.83;;;21.03;;
15869;SDS011;63464;51.344;-1.634;2022-11-13T08:33:43;32.47;;;21.00;;
15869;SDS011;63464;51.344;-1.634;2022-11-13T08:36:12;31.73;;;20.60;;
15869;SDS011;63464;51.344;-1.634;2022-11-13T08:38:40;31.27;;;21.00;;
15869;SDS011;63464;51.344;-1.634;2022-11-13T08:41:08;35.73;;;20.60;;
15869;SDS011;63464;51.344;-1.634;2022-11-13T08:43:37;35.07;;;21.53;;
15869;SDS011;63464;51.344;-1.634;2022-11-13T08:46:05;30.87;;;19.87;;
15869;SDS011;63464;51.344;-1.634;2022-11-13T08:48:33;31.23;;;19.70;;
15869;SDS011;63464;51.344;-1.634;2022-11-13T08:51:03;32.97;;;20.60;;
15869;SDS011;63464;51.344;-1.634;2022-11-13T08:53:33;27.87;;;19.57;;
15869;SDS011;63464;51.344;-1.634;2022-11-13T08:56:03;31.73;;;20.83;;
15869;SDS011;63464;51.344;-1.634;2022-11-13T08:58:31;30.90;;;20.47;;
15869;SDS011;63464;51.344;-1.634;2022-11-13T09:01:00;27.47;;;19.00;;
15869;SDS011;63464;51.344;-1.634;2022-11-13T09:03:29;27.10;;;20.20;;
15869;SDS011;63464;51.344;-1.634;2022-11-13T09:05:57;26.37;;;19.20;;
15869;SDS011;63464;51.344;-1.634;2022-11-13T09:08:25;25.97;;;18.67;;
15869;SDS011;63464;51.344;-1.634;2022-11-13T09:10:54;30.00;;;18.70;;
15869;SDS011;63464;51.344;-1.634;2022-11-13T09:13:22;27.67;;;19.07;;
15869;SDS011;63464;51.344;-1.634;2022-11-13T09:18:52;30.67;;;20.83;;
15869;SDS011;63464;51.344;-1.634;2022-11-13T09:21:20;27.43;;;19.03;;
15869;SDS011;63464;51.344;-1.634;2022-11-13T09:23:49;25.20;;;19.53;;
15869;SDS011;63464;51.344;-1.634;2022-11-13T09:26:17;30.63;;;20.20;;
15869;SDS011;63464;51.344;-1.634;2022-11-13T09:28:46;27.10;;;19.53;;
15869;SDS011;63464;51.344;-1.634;2022-11-13T09:31:14;26.80;;;19.77;;
15869;SDS011;63464;51.344;-1.634;2022-11-13T09:33:43;28.43;;;19.63;;
15869;SDS011;63464;51.344;-1.634;2022-11-13T09:36:12;26.63;;;19.70;;
15869;SDS011;63464;51.344;-1.634;2022-11-13T09:38:40;26.03;;;19.53;;
15869;SDS011;63464;51.344;-1.634;2022-11-13T09:41:09;26.90;;;19.80;;
15869;SDS011;63464;51.344;-1.634;2022-11-13T09:43:40;25.60;;;18.30;;
15869;SDS011;63464;51.344;-1.634;2022-11-13T09:46:10;26.77;;;18.97;;
15869;SDS011;63464;51.344;-1.634;2022-11-13T09:48:41;26.07;;;18.17;;
15869;SDS011;63464;51.344;-1.634;2022-11-13T09:51:10;23.63;;;18.63;;
15869;SDS011;63464;51.344;-1.634;2022-11-13T09:53:40;24.40;;;18.47;;
15869;SDS011;63464;51.344;-1.634;2022-11-13T09:56:15;21.43;;;17.77;;
15869;SDS011;63464;51.344;-1.634;2022-11-13T09:58:46;22.77;;;18.50;;
15869;SDS011;63464;51.344;-1.634;2022-11-13T10:01:18;22.73;;;18.13;;
15869;SDS011;63464;51.344;-1.634;2022-11-13T10:03:48;22.13;;;17.00;;
15869;SDS011;63464;51.344;-1.634;2022-11-13T10:06:17;19.60;;;17.47;;
15869;SDS011;63464;51.344;-1.634;2022-11-13T10:08:48;19.53;;;17.53;;
15869;SDS011;63464;51.344;-1.634;2022-11-13T10:11:19;18.57;;;16.23;;
15869;SDS011;63464;51.344;-1.634;2022-11-13T10:13:48;20.27;;;16.50;;
15869;SDS011;63464;51.344;-1.634;2022-11-13T10:16:19;18.27;;;16.03;;
15869;SDS011;63464;51.344;-1.634;2022-11-13T10:18:48;19.57;;;16.50;;
15869;SDS011;63464;51.344;-1.634;2022-11-13T10:21:20;18.00;;;15.90;;
15869;SDS011;63464;51.344;-1.634;2022-11-13T10:23:52;17.87;;;15.77;;
15869;SDS011;63464;51.344;-1.634;2022-11-13T10:26:20;18.83;;;15.90;;
15869;SDS011;63464;51.344;-1.634;2022-11-13T10:28:48;19.80;;;16.10;;
15869;SDS011;63464;51.344;-1.634;2022-11-13T10:31:19;17.90;;;15.60;;
15869;SDS011;63464;51.344;-1.634;2022-11-13T10:33:47;19.73;;;15.00;;
15869;SDS011;63464;51.344;-1.634;2022-11-13T10:36:19;19.53;;;15.87;;
15869;SDS011;63464;51.344;-1.634;2022-11-13T10:38:48;16.23;;;14.27;;
15869;SDS011;63464;51.344;-1.634;2022-11-13T10:41:17;14.97;;;13.37;;
15869;SDS011;63464;51.344;-1.634;2022-11-13T10:43:50;15.57;;;13.97;;
15869;SDS011;63464;51.344;-1.634;2022-11-13T10:46:19;15.70;;;13.97;;
15869;SDS011;63464;51.344;-1.634;2022-11-13T10:48:48;15.07;;;13.57;;
15869;SDS011;63464;51.344;-1.634;2022-11-13T10:51:21;14.10;;;12.70;;
15869;SDS011;63464;51.344;-1.634;2022-11-13T10:53:50;14.20;;;12.70;;
15869;SDS011;63464;51.344;-1.634;2022-11-13T10:56:23;13.93;;;12.53;;
15869;SDS011;63464;51.344;-1.634;2022-11-13T10:59:07;13.50;;;12.30;;
15869;SDS011;63464;51.344;-1.634;2022-11-13T11:01:34;14.67;;;13.17;;
15869;SDS011;63464;51.344;-1.634;2022-11-13T11:04:03;13.37;;;11.97;;
15869;SDS011;63464;51.344;-1.634;2022-11-13T11:06:32;13.60;;;12.30;;
15869;SDS011;63464;51.344;-1.634;2022-11-13T11:09:21;14.37;;;12.87;;
15869;SDS011;63464;51.344;-1.634;2022-11-13T11:11:37;12.17;;;10.93;;
15869;SDS011;63464;51.344;-1.634;2022-11-13T11:14:24;16.23;;;12.90;;
15869;SDS011;63464;51.344;-1.634;2022-11-13T11:16:54;13.90;;;11.87;;
15869;SDS011;63464;51.344;-1.634;2022-11-13T11:19:25;14.97;;;12.00;;
15869;SDS011;63464;51.344;-1.634;2022-11-13T11:21:56;13.70;;;12.30;;
15869;SDS011;63464;51.344;-1.634;2022-11-13T11:24:24;14.00;;;12.57;;
15869;SDS011;63464;51.344;-1.634;2022-11-13T11:26:55;13.33;;;12.13;;
15869;SDS011;63464;51.344;-1.634;2022-11-13T11:29:25;12.40;;;11.10;;
15869;SDS011;63464;51.344;-1.634;2022-11-13T11:31:55;13.83;;;12.17;;
15869;SDS011;63464;51.344;-1.634;2022-11-13T11:34:27;12.77;;;11.37;;
15869;SDS011;63464;51.344;-1.634;2022-11-13T11:36:57;14.43;;;11.23;;
15869;SDS011;63464;51.344;-1.634;2022-11-13T11:39:26;12.57;;;11.10;;
15869;SDS011;63464;51.344;-1.634;2022-11-13T11:41:57;12.97;;;11.67;;
15869;SDS011;63464;51.344;-1.634;2022-11-13T11:44:27;12.50;;;11.30;;
15869;SDS011;63464;51.344;-1.634;2022-11-13T11:46:56;13.77;;;11.37;;
15869;SDS011;63464;51.344;-1.634;2022-11-13T11:49:24;11.77;;;10.60;;
15869;SDS011;63464;51.344;-1.634;2022-11-13T11:51:55;11.40;;;10.30;;
15869;SDS011;63464;51.344;-1.634;2022-11-13T11:54:27;11.03;;;9.97;;
15869;SDS011;63464;51.344;-1.634;2022-11-13T11:56:56;13.37;;;10.33;;
15869;SDS011;63464;51.344;-1.634;2022-11-13T11:59:32;10.63;;;9.53;;
15869;SDS011;63464;51.344;-1.634;2022-11-13T12:02:11;10.97;;;9.67;;
15869;SDS011;63464;51.344;-1.634;2022-11-13T12:04:35;10.27;;;9.37;;
15869;SDS011;63464;51.344;-1.634;2022-11-13T12:07:09;9.90;;;8.90;;
15869;SDS011;63464;51.344;-1.634;2022-11-13T12:09:37;12.47;;;8.93;;
15869;SDS011;63464;51.344;-1.634;2022-11-13T12:12:09;10.63;;;8.73;;
15869;SDS011;63464;51.344;-1.634;2022-11-13T12:14:38;9.10;;;7.57;;
15869;SDS011;63464;51.344;-1.634;2022-11-13T12:17:10;9.40;;;8.33;;
15869;SDS011;63464;51.344;-1.634;2022-11-13T12:19:42;10.30;;;9.20;;
15869;SDS011;63464;51.344;-1.634;2022-11-13T12:22:11;14.10;;;9.63;;
15869;SDS011;63464;51.344;-1.634;2022-11-13T12:24:51;10.73;;;9.73;;
15869;SDS011;63464;51.344;-1.634;2022-11-13T12:27:21;11.17;;;9.97;;
15869;SDS011;63464;51.344;-1.634;2022-11-13T12:29:55;12.70;;;11.50;;
15869;SDS011;63464;51.344;-1.634;2022-11-13T12:32:35;12.47;;;10.37;;
15869;SDS011;63464;51.344;-1.634;2022-11-13T12:35:03;13.07;;;11.00;;
15869;SDS011;63464;51.344;-1.634;2022-11-13T12:37:33;13.47;;;11.83;;
15869;SDS011;63464;51.344;-1.634;2022-11-13T12:40:04;10.80;;;9.77;;
15869;SDS011;63464;51.344;-1.634;2022-11-13T12:42:32;10.63;;;9.67;;
15869;SDS011;63464;51.344;-1.634;2022-11-13T12:45:06;10.80;;;9.83;;
15869;SDS011;63464;51.344;-1.634;2022-11-13T12:47:34;11.63;;;9.80;;
15869;SDS011;63464;51.344;-1.634;2022-11-13T12:50:04;10.53;;;9.43;;
15869;SDS011;63464;51.344;-1.634;2022-11-13T12:52:32;10.17;;;9.13;;
15869;SDS011;63464;51.344;-1.634;2022-11-13T12:55:05;10.23;;;9.23;;
15869;SDS011;63464;51.344;-1.634;2022-11-13T12:57:34;11.77;;;8.70;;
15869;SDS011;63464;51.344;-1.634;2022-11-13T13:00:19;9.50;;;8.50;;
15869;SDS011;63464;51.344;-1.634;2022-11-13T13:02:51;8.90;;;7.97;;
15869;SDS011;63464;51.344;-1.634;2022-11-13T13:05:23;8.77;;;7.63;;
15869;SDS011;63464;51.344;-1.634;2022-11-13T13:10:43;6.87;;;6.27;;
15869;SDS011;63464;51.344;-1.634;2022-11-13T13:13:12;8.50;;;6.37;;
15869;SDS011;63464;51.344;-1.634;2022-11-13T13:15:42;6.87;;;6.33;;
15869;SDS011;63464;51.344;-1.634;2022-11-13T13:18:11;8.70;;;6.77;;
15869;SDS011;63464;51.344;-1.634;2022-11-13T13:20:40;7.33;;;6.63;;
15869;SDS011;63464;51.344;-1.634;2022-11-13T13:23:12;8.47;;;6.63;;
15869;SDS011;63464;51.344;-1.634;2022-11-13T13:25:42;6.90;;;6.30;;
15869;SDS011;63464;51.344;-1.634;2022-11-13T13:28:17;7.00;;;6.10;;
15869;SDS011;63464;51.344;-1.634;2022-11-13T13:30:51;7.97;;;5.50;;
15869;SDS011;63464;51.344;-1.634;2022-11-13T13:33:20;6.37;;;5.77;;
15869;SDS011;63464;51.344;-1.634;2022-11-13T13:35:50;6.73;;;6.07;;
15869;SDS011;63464;51.344;-1.634;2022-11-13T13:38:23;6.13;;;5.60;;
15869;SDS011;63464;51.344;-1.634;2022-11-13T13:40:57;6.30;;;5.30;;
15869;SDS011;63464;51.344;-1.634;2022-11-13T13:43:31;6.43;;;5.27;;
15869;SDS011;63464;51.344;-1.634;2022-11-13T13:46:03;7.83;;;5.33;;
15869;SDS011;63464;51.344;-1.634;2022-11-13T13:48:31;7.20;;;5.20;;
15869;SDS011;63464;51.344;-1.634;2022-11-13T13:51:01;6.60;;;5.30;;
15869;SDS011;63464;51.344;-1.634;2022-11-13T13:53:33;5.60;;;5.10;;
15869;SDS011;63464;51.344;-1.634;2022-11-13T13:56:02;7.17;;;4.93;;
15869;SDS011;63464;51.344;-1.634;2022-11-13T13:58:32;5.10;;;4.60;;
15869;SDS011;63464;51.344;-1.634;2022-11-13T14:01:03;6.47;;;5.00;;
15869;SDS011;63464;51.344;-1.634;2022-11-13T14:03:32;5.70;;;5.13;;
15869;SDS011;63464;51.344;-1.634;2022-11-13T14:06:13;5.80;;;5.13;;
15869;SDS011;63464;51.344;-1.634;2022-11-13T14:08:43;5.03;;;4.53;;
15869;SDS011;63464;51.344;-1.634;2022-11-13T14:11:19;5.57;;;5.07;;
15869;SDS011;63464;51.344;-1.634;2022-11-13T14:13:48;5.03;;;4.50;;
15869;SDS011;63464;51.344;-1.634;2022-11-13T14:16:17;5.00;;;4.37;;
15869;SDS011;63464;51.344;-1.634;2022-11-13T14:18:46;7.50;;;5.17;;
15869;SDS011;63464;51.344;-1.634;2022-11-13T14:21:15;6.47;;;4.83;;
15869;SDS011;63464;51.344;-1.634;2022-11-13T14:23:46;6.60;;;4.67;;
15869;SDS011;63464;51.344;-1.634;2022-11-13T14:26:16;5.00;;;4.57;;
15869;SDS011;63464;51.344;-1.634;2022-11-13T14:28:48;4.90;;;4.50;;
15869;SDS011;63464;51.344;-1.634;2022-11-13T14:31:16;6.37;;;4.73;;